< < Back
Terminal Aerodrome Forecast


Current Version              Previous Versions:   1  2  3  4  5  6  7  8  9  

Terminal Aerodrome Forecast

068
FTUS42 KCAE 151300 AAA
TAFCAE
TAF AMD
KCAE 151352Z 1514/1612 22015G25KT 5SM SHRA BKN035
      TEMPO 1515/1517 3SM SHRA BKN015
     FM151800 29015G25KT P6SM VCSH BKN035
     FM152300 32012KT P6SM SKC=

Latest METAR

034
SAUS80 KWBC 160400
MTRCAE
METAR KCAE 160356Z 35009KT 10SM SCT150 09/01 A3003 RMK AO2 SLP169
T00890006


USA.gov is the U.S. government's official web portal to all federal, state and local government web resources and services.